Time;durP1;ratioP1;P1;durP2;ratioP2;P2;SDS_P1;SDS_P2;PMS_P1;PMS_P2;Temp;Humidity;BMP_temperature;BMP_pressure;BME280_temperature;BME280_humidity;BME280_pressure;Samples;Min_cycle;Max_cycle;Signal;HPM_P1;HPM_P2
2021/10/20 00:00:19;;;;;;;26.40;17.10;;;15.30;96.20;;;;;;5004005;28;20181;-70
2021/10/20 00:02:47;;;;;;;24.10;16.85;;;15.30;96.40;;;;;;5009278;28;20108;-70
2021/10/20 00:05:13;;;;;;;23.42;16.52;;;15.30;96.50;;;;;;5021970;28;20064;-70
2021/10/20 00:07:39;;;;;;;21.17;16.20;;;15.30;96.30;;;;;;5017766;28;20496;-70
2021/10/20 00:10:05;;;;;;;21.30;16.08;;;15.30;96.20;;;;;;5016595;28;20057;-70
2021/10/20 00:12:31;;;;;;;26.20;17.15;;;15.20;96.20;;;;;;5007865;28;20025;-70
2021/10/20 00:14:57;;;;;;;23.15;16.25;;;15.40;95.80;;;;;;5015090;28;20033;-70
2021/10/20 00:17:23;;;;;;;22.33;16.30;;;15.30;95.90;;;;;;5019067;28;20072;-70
2021/10/20 00:19:55;;;;;;;22.63;15.77;;;15.30;95.90;;;;;;5024177;28;20074;-70
2021/10/20 00:22:20;;;;;;;24.13;15.77;;;15.30;95.70;;;;;;5014565;28;20034;-70
2021/10/20 00:24:46;;;;;;;19.15;15.27;;;15.30;95.70;;;;;;5016606;28;20169;-69
2021/10/20 00:27:11;;;;;;;24.15;15.27;;;15.20;95.90;;;;;;5006567;27;20125;-70
2021/10/20 00:29:37;;;;;;;22.70;16.25;;;15.10;95.80;;;;;;5006001;28;20026;-70
2021/10/20 00:32:03;;;;;;;22.90;15.18;;;15.10;95.90;;;;;;5013023;28;20101;-70
2021/10/20 00:34:29;;;;;;;22.75;15.60;;;15.10;96.10;;;;;;5019454;28;20105;-70
2021/10/20 00:36:54;;;;;;;21.38;15.10;;;15.00;95.90;;;;;;5016345;28;20505;-71
2021/10/20 00:39:20;;;;;;;23.60;14.95;;;15.00;96.00;;;;;;5018890;28;20033;-70
2021/10/20 00:41:46;;;;;;;22.15;15.38;;;15.00;96.20;;;;;;5014180;28;20030;-69
2021/10/20 00:44:11;;;;;;;21.25;14.15;;;15.00;96.00;;;;;;5064315;27;20038;-70
2021/10/20 00:46:37;;;;;;;19.50;13.95;;;15.00;96.00;;;;;;5025453;28;20037;-69
2021/10/20 00:49:03;;;;;;;22.45;15.10;;;15.00;96.00;;;;;;5007598;28;20078;-70
2021/10/20 00:51:28;;;;;;;19.85;14.18;;;15.00;95.60;;;;;;5014516;28;20536;-70
2021/10/20 00:53:58;;;;;;;23.52;14.55;;;15.00;95.40;;;;;;5014159;28;20026;-70
2021/10/20 00:56:24;;;;;;;20.60;13.82;;;15.00;95.50;;;;;;5011305;28;20026;-70
2021/10/20 00:58:50;;;;;;;19.02;14.00;;;15.00;95.40;;;;;;5012470;28;20575;-70
2021/10/20 01:01:16;;;;;;;22.33;14.25;;;15.00;95.60;;;;;;5045459;27;20023;-70
2021/10/20 01:03:45;;;;;;;17.58;12.90;;;14.80;95.90;;;;;;5014766;28;20030;-70
2021/10/20 01:06:12;;;;;;;19.48;13.25;;;14.80;96.40;;;;;;5016662;28;20540;-70
2021/10/20 01:08:38;;;;;;;16.60;12.65;;;14.80;96.20;;;;;;5014013;28;20030;-70
2021/10/20 01:11:05;;;;;;;20.00;13.48;;;14.60;96.10;;;;;;5019388;28;20076;-70
2021/10/20 01:13:31;;;;;;;19.65;13.48;;;14.70;96.40;;;;;;5012615;28;20041;-70
2021/10/20 01:15:57;;;;;;;17.60;12.90;;;14.60;96.00;;;;;;5011856;28;20143;-70
2021/10/20 01:18:23;;;;;;;22.63;13.32;;;14.60;96.40;;;;;;5011497;28;20049;-70
2021/10/20 01:20:53;;;;;;;17.58;12.70;;;14.50;96.40;;;;;;5022143;28;20052;-70
2021/10/20 01:23:20;;;;;;;20.02;12.82;;;14.50;96.60;;;;;;5010159;28;20041;-70
2021/10/20 01:25:46;;;;;;;18.48;13.05;;;14.40;96.40;;;;;;5014332;28;20086;-69
2021/10/20 01:28:13;;;;;;;20.77;12.80;;;14.50;96.60;;;;;;5007608;28;20126;-70
2021/10/20 01:30:39;;;;;;;19.10;13.52;;;14.50;96.60;;;;;;5011735;28;20597;-70
2021/10/20 01:33:04;;;;;;;16.75;11.60;;;14.50;96.40;;;;;;5015653;28;20044;-70
2021/10/20 01:35:30;;;;;;;17.67;12.73;;;14.60;95.80;;;;;;5014653;27;20095;-70
2021/10/20 01:38:00;;;;;;;16.40;12.00;;;14.50;95.80;;;;;;5018206;28;20165;-70
2021/10/20 01:40:26;;;;;;;21.17;12.32;;;14.50;96.00;;;;;;5014441;28;20037;-70
2021/10/20 01:42:51;;;;;;;17.55;11.02;;;14.40;96.10;;;;;;5015345;27;20447;-70
2021/10/20 01:45:17;;;;;;;16.02;10.57;;;14.40;96.20;;;;;;5012398;28;20441;-70
2021/10/20 01:47:43;;;;;;;18.20;11.00;;;14.30;96.30;;;;;;5011394;28;20095;-70
2021/10/20 01:50:11;;;;;;;16.40;10.63;;;14.30;96.50;;;;;;5013376;28;20056;-70
2021/10/20 01:52:38;;;;;;;18.92;10.77;;;14.20;96.60;;;;;;5015174;27;20102;-70
2021/10/20 01:55:09;;;;;;;15.98;10.43;;;14.30;96.30;;;;;;5017187;28;20112;-70
2021/10/20 01:57:34;;;;;;;14.52;9.77;;;14.30;96.20;;;;;;5004183;28;20113;-70
2021/10/20 02:00:00;;;;;;;16.58;10.65;;;14.30;96.00;;;;;;5019605;27;20110;-70
2021/10/20 02:02:26;;;;;;;16.30;10.45;;;14.30;96.30;;;;;;5046448;27;20144;-70
2021/10/20 02:04:51;;;;;;;16.25;10.38;;;14.20;96.20;;;;;;5019890;28;20501;-70
2021/10/20 02:07:17;;;;;;;12.65;9.25;;;14.30;95.90;;;;;;5013418;28;20070;-70
2021/10/20 02:09:45;;;;;;;15.38;10.50;;;14.20;95.90;;;;;;5030434;27;20473;-70
2021/10/20 02:12:11;;;;;;;13.20;10.00;;;14.30;95.70;;;;;;5015435;28;20392;-70
2021/10/20 02:14:37;;;;;;;15.63;9.43;;;14.30;95.50;;;;;;5019076;28;20037;-70
2021/10/20 02:17:04;;;;;;;15.27;9.00;;;14.20;95.70;;;;;;5019908;28;20079;-70
2021/10/20 02:19:30;;;;;;;13.68;8.85;;;14.20;95.70;;;;;;5019047;28;20407;-70
2021/10/20 02:21:56;;;;;;;13.77;9.00;;;14.30;95.40;;;;;;5007762;28;20136;-70
2021/10/20 02:24:22;;;;;;;14.35;9.32;;;14.30;95.00;;;;;;5017007;28;20100;-69
2021/10/20 02:26:48;;;;;;;14.27;8.35;;;14.20;94.80;;;;;;5009605;28;20045;-70
2021/10/20 02:29:13;;;;;;;16.73;8.18;;;14.30;94.60;;;;;;5011223;28;20437;-70
2021/10/20 02:31:45;;;;;;;12.70;8.18;;;14.50;93.90;;;;;;5006557;28;20049;-70
2021/10/20 02:34:12;;;;;;;12.50;8.25;;;14.50;93.40;;;;;;5019581;27;20040;-69
2021/10/20 02:36:38;;;;;;;11.68;7.45;;;14.50;93.70;;;;;;5032846;27;20090;-70
2021/10/20 02:39:04;;;;;;;14.68;8.00;;;14.50;93.20;;;;;;5016308;28;20018;-70
2021/10/20 02:41:29;;;;;;;11.90;6.85;;;14.60;92.90;;;;;;5016831;28;20116;-70
2021/10/20 02:43:55;;;;;;;11.85;6.97;;;14.50;92.90;;;;;;5029920;27;20477;-69
2021/10/20 02:46:20;;;;;;;9.80;7.32;;;14.60;92.60;;;;;;5012045;28;20274;-70
2021/10/20 02:48:46;;;;;;;14.80;7.55;;;14.60;92.50;;;;;;5008162;28;20467;-69
2021/10/20 02:51:12;;;;;;;10.15;7.05;;;14.60;92.10;;;;;;5014789;28;20125;-70
2021/10/20 02:53:37;;;;;;;11.48;6.75;;;14.60;91.90;;;;;;5018421;28;20147;-70
2021/10/20 02:56:03;;;;;;;9.45;6.80;;;14.60;91.90;;;;;;5031079;28;20439;-70
2021/10/20 02:58:29;;;;;;;12.27;6.07;;;14.50;92.00;;;;;;5028741;27;20032;-70
2021/10/20 03:00:55;;;;;;;11.18;6.00;;;14.60;91.30;;;;;;5015902;27;20029;-69
2021/10/20 03:03:20;;;;;;;8.73;5.88;;;14.50;91.80;;;;;;5014465;28;20652;-70
2021/10/20 03:05:46;;;;;;;9.80;6.28;;;14.40;92.20;;;;;;5016874;28;20106;-70
2021/10/20 03:08:12;;;;;;;10.32;5.72;;;14.50;92.00;;;;;;5009130;28;20502;-70
2021/10/20 03:10:38;;;;;;;9.90;5.53;;;14.40;91.90;;;;;;5020424;28;20048;-70
2021/10/20 03:13:04;;;;;;;8.80;5.85;;;14.40;92.00;;;;;;5011772;28;20021;-70
2021/10/20 03:15:29;;;;;;;10.65;6.25;;;14.50;91.60;;;;;;5004676;28;20022;-70
2021/10/20 03:17:55;;;;;;;8.30;5.45;;;14.50;91.00;;;;;;5043053;27;20189;-71
2021/10/20 03:20:21;;;;;;;9.35;5.85;;;14.40;91.80;;;;;;5011776;28;20141;-70
2021/10/20 03:22:46;;;;;;;8.27;5.45;;;14.30;91.90;;;;;;5014725;28;20113;-69
2021/10/20 03:25:13;;;;;;;9.73;5.80;;;14.20;91.90;;;;;;5012466;28;20102;-70
2021/10/20 03:27:46;;;;;;;9.55;5.80;;;14.20;92.30;;;;;;5010979;28;20069;-70
2021/10/20 03:30:13;;;;;;;8.02;5.38;;;14.30;91.60;;;;;;5006391;28;20100;-69
2021/10/20 03:32:39;;;;;;;9.25;5.35;;;14.30;91.20;;;;;;5019814;28;20113;-70
2021/10/20 03:35:05;;;;;;;9.82;5.35;;;14.20;91.50;;;;;;5015338;27;20022;-70
2021/10/20 03:37:31;;;;;;;8.57;4.90;;;14.20;91.30;;;;;;5016885;28;20041;-69
2021/10/20 03:39:57;;;;;;;9.70;5.13;;;14.20;91.60;;;;;;5009763;28;20048;-70
2021/10/20 03:42:23;;;;;;;8.80;5.50;;;14.10;91.70;;;;;;5011840;28;20034;-70
2021/10/20 03:44:51;;;;;;;8.13;4.63;;;14.10;91.40;;;;;;5014930;28;20512;-70
2021/10/20 03:47:19;;;;;;;8.77;4.80;;;14.10;91.40;;;;;;5010761;28;20034;-70
2021/10/20 03:49:49;;;;;;;6.65;4.53;;;14.20;91.00;;;;;;5007513;28;20052;-70
2021/10/20 03:52:16;;;;;;;10.65;4.68;;;14.20;90.90;;;;;;5019113;28;20058;-70
2021/10/20 03:54:41;;;;;;;7.70;4.80;;;14.30;90.20;;;;;;5016955;28;20057;-70
2021/10/20 03:57:08;;;;;;;8.48;4.72;;;14.20;90.80;;;;;;5006284;28;20070;-69
2021/10/20 03:59:34;;;;;;;8.35;4.60;;;14.30;90.00;;;;;;5007041;28;20726;-70
2021/10/20 04:01:59;;;;;;;7.75;4.28;;;14.30;89.70;;;;;;5016369;28;20033;-70
2021/10/20 04:04:25;;;;;;;7.40;4.05;;;14.10;90.50;;;;;;5022836;27;20022;-70
2021/10/20 04:06:51;;;;;;;6.43;4.05;;;14.10;90.40;;;;;;5010957;28;20407;-70
2021/10/20 04:09:17;;;;;;;9.80;4.20;;;14.10;90.80;;;;;;5024197;28;20153;-70
2021/10/20 04:11:42;;;;;;;6.72;4.28;;;14.10;90.30;;;;;;5018617;28;20062;-70
2021/10/20 04:14:08;;;;;;;6.47;4.05;;;14.10;90.20;;;;;;5019441;28;20468;-70
2021/10/20 04:16:34;;;;;;;7.38;4.25;;;14.30;89.40;;;;;;5011600;28;20126;-71
2021/10/20 04:19:00;;;;;;;6.18;4.00;;;14.20;89.90;;;;;;5067757;27;20109;-70
2021/10/20 04:21:26;;;;;;;9.48;4.60;;;14.10;90.10;;;;;;5014534;28;20053;-64
2021/10/20 04:23:52;;;;;;;7.40;4.00;;;14.10;90.20;;;;;;5017406;28;20022;-64
2021/10/20 04:26:17;;;;;;;7.78;4.30;;;14.10;90.00;;;;;;5027505;27;20036;-64
2021/10/20 04:28:43;;;;;;;6.65;4.13;;;14.10;89.60;;;;;;5010779;28;20104;-64
2021/10/20 04:31:09;;;;;;;6.47;3.88;;;14.10;89.80;;;;;;5004127;28;20544;-65
2021/10/20 04:33:35;;;;;;;6.03;3.92;;;14.10;89.70;;;;;;5016843;28;20325;-65
2021/10/20 04:36:01;;;;;;;6.80;4.20;;;14.10;89.50;;;;;;5021690;27;20037;-65
2021/10/20 04:38:26;;;;;;;7.50;3.50;;;14.10;89.50;;;;;;5017958;27;20106;-65
2021/10/20 04:40:52;;;;;;;7.90;3.92;;;14.10;89.30;;;;;;5017489;28;20484;-66
2021/10/20 04:43:18;;;;;;;11.00;3.50;;;14.10;89.20;;;;;;5014738;28;20439;-65
2021/10/20 04:45:43;;;;;;;6.15;4.00;;;14.20;88.90;;;;;;5009833;28;20056;-65
2021/10/20 04:48:09;;;;;;;8.48;4.32;;;14.30;88.40;;;;;;5018219;28;20502;-66
2021/10/20 04:50:35;;;;;;;7.20;4.10;;;14.30;88.30;;;;;;5018377;28;20033;-65
2021/10/20 04:53:00;;;;;;;7.45;3.78;;;14.30;88.10;;;;;;5014256;28;20030;-65
2021/10/20 04:55:26;;;;;;;5.38;3.65;;;14.30;88.10;;;;;;5010487;28;20113;-64
2021/10/20 04:57:53;;;;;;;7.15;4.07;;;14.30;88.30;;;;;;5028663;28;20033;-65
2021/10/20 05:00:22;;;;;;;6.65;4.00;;;14.40;87.50;;;;;;5005217;28;20025;-65
2021/10/20 05:02:47;;;;;;;6.72;3.97;;;14.40;87.60;;;;;;5016255;27;20148;-66
2021/10/20 05:05:14;;;;;;;6.47;4.15;;;14.30;87.90;;;;;;5010474;28;20033;-65
2021/10/20 05:07:51;;;;;;;8.63;4.28;;;14.30;87.90;;;;;;5008547;27;20067;-65
2021/10/20 05:10:21;;;;;;;5.75;3.97;;;14.20;88.00;;;;;;5021283;28;21836;-66
2021/10/20 05:12:47;;;;;;;8.38;3.47;;;14.20;88.00;;;;;;5014531;28;20033;-65
2021/10/20 05:15:13;;;;;;;10.48;4.40;;;14.50;87.00;;;;;;5002462;28;20085;-65
2021/10/20 05:17:40;;;;;;;5.85;3.58;;;14.50;86.70;;;;;;5029352;27;20393;-65
2021/10/20 05:20:07;;;;;;;8.40;4.05;;;14.60;86.30;;;;;;5022317;28;20026;-65
2021/10/20 05:22:37;;;;;;;7.07;3.90;;;14.50;86.50;;;;;;5009803;28;20037;-65
2021/10/20 05:25:05;;;;;;;6.88;4.18;;;14.50;86.80;;;;;;5015715;27;20033;-64
2021/10/20 05:27:31;;;;;;;7.25;3.92;;;14.60;86.00;;;;;;5016242;28;20710;-64
2021/10/20 05:30:00;;;;;;;6.50;3.88;;;14.70;85.50;;;;;;5003178;28;20075;-65
2021/10/20 05:32:26;;;;;;;6.32;4.03;;;14.60;85.80;;;;;;5012775;28;20101;-65
2021/10/20 05:34:52;;;;;;;8.38;4.10;;;14.80;85.10;;;;;;5018363;28;20018;-65
2021/10/20 05:37:18;;;;;;;8.07;4.53;;;14.70;85.20;;;;;;5023791;28;20120;-65
2021/10/20 05:39:47;;;;;;;6.60;3.85;;;14.80;84.90;;;;;;5025819;28;20018;-65
2021/10/20 05:42:12;;;;;;;7.28;4.32;;;14.70;85.30;;;;;;5010682;28;20101;-65
2021/10/20 05:44:38;;;;;;;8.57;4.30;;;14.60;85.50;;;;;;5023710;27;20421;-66
2021/10/20 05:47:03;;;;;;;8.68;4.63;;;14.60;85.80;;;;;;5014906;27;20098;-66
2021/10/20 05:49:29;;;;;;;5.63;3.50;;;14.80;84.90;;;;;;5018125;28;20056;-65
2021/10/20 05:51:55;;;;;;;5.78;4.18;;;14.60;85.60;;;;;;5012969;28;20037;-66
2021/10/20 05:54:20;;;;;;;6.90;4.70;;;14.60;85.30;;;;;;5007933;28;20036;-66
2021/10/20 05:56:46;;;;;;;8.43;4.13;;;14.60;85.50;;;;;;5017249;28;20033;-66
2021/10/20 05:59:11;;;;;;;9.25;4.10;;;14.60;85.70;;;;;;5003612;28;20596;-66
2021/10/20 06:01:37;;;;;;;6.90;4.18;;;14.50;86.20;;;;;;5000759;28;20064;-65
2021/10/20 06:04:03;;;;;;;6.72;3.97;;;14.30;86.90;;;;;;5014234;28;20069;-66
2021/10/20 06:06:29;;;;;;;8.32;3.83;;;14.40;86.50;;;;;;5014056;27;20025;-65
2021/10/20 06:08:55;;;;;;;9.40;4.43;;;14.40;86.40;;;;;;5037637;27;20119;-65
2021/10/20 06:11:21;;;;;;;7.00;3.80;;;14.20;87.00;;;;;;5012818;28;20165;-65
2021/10/20 06:13:46;;;;;;;8.70;4.20;;;14.20;86.80;;;;;;5022306;28;20341;-65
2021/10/20 06:16:12;;;;;;;9.88;3.83;;;14.20;87.00;;;;;;5022028;28;20440;-66
2021/10/20 06:18:38;;;;;;;8.80;4.38;;;14.20;87.20;;;;;;5018524;28;20075;-65
2021/10/20 06:21:05;;;;;;;7.05;4.00;;;14.20;87.00;;;;;;5022681;28;20116;-65
2021/10/20 06:23:31;;;;;;;8.30;4.55;;;14.20;87.20;;;;;;5010192;28;20041;-65
2021/10/20 06:25:57;;;;;;;7.40;3.97;;;14.20;87.30;;;;;;5022303;27;20029;-65
2021/10/20 06:28:23;;;;;;;6.53;4.00;;;14.30;86.90;;;;;;5013568;28;20365;-66
2021/10/20 06:30:50;;;;;;;8.48;4.18;;;14.20;87.00;;;;;;5011635;28;20161;-65
2021/10/20 06:33:15;;;;;;;6.40;4.03;;;14.20;87.10;;;;;;5022089;27;20057;-65
2021/10/20 06:35:41;;;;;;;7.30;4.35;;;14.20;87.20;;;;;;5013511;28;20064;-65
2021/10/20 06:38:06;;;;;;;8.52;4.45;;;14.20;87.10;;;;;;5012595;28;20640;-65
2021/10/20 06:40:32;;;;;;;7.88;3.95;;;14.30;86.60;;;;;;5014900;28;20041;-65
2021/10/20 06:42:59;;;;;;;6.82;3.80;;;14.30;86.30;;;;;;5028214;27;20124;-65
2021/10/20 06:45:24;;;;;;;7.55;3.90;;;14.30;86.80;;;;;;5006485;28;20044;-65
2021/10/20 06:47:50;;;;;;;9.90;4.15;;;14.30;86.90;;;;;;5012235;28;20025;-65
2021/10/20 06:50:17;;;;;;;6.70;3.92;;;14.20;87.20;;;;;;5016209;28;20424;-65
2021/10/20 06:52:42;;;;;;;7.45;4.28;;;14.30;86.50;;;;;;5007222;28;20464;-65
2021/10/20 06:55:09;;;;;;;7.05;3.67;;;14.30;86.70;;;;;;5011901;28;20025;-65
2021/10/20 06:57:35;;;;;;;7.38;4.20;;;14.50;85.60;;;;;;5034778;28;20050;-65
2021/10/20 07:00:01;;;;;;;7.78;4.05;;;14.40;86.40;;;;;;5010600;28;20041;-65
2021/10/20 07:02:26;;;;;;;8.23;4.60;;;14.40;86.00;;;;;;5018027;28;20086;-65
2021/10/20 07:04:52;;;;;;;6.82;4.30;;;14.40;86.00;;;;;;5015658;28;20041;-65
2021/10/20 07:07:18;;;;;;;8.75;4.07;;;14.40;86.10;;;;;;5000238;28;20087;-66
2021/10/20 07:09:43;;;;;;;8.18;4.70;;;14.50;85.70;;;;;;5005915;28;20048;-64
2021/10/20 07:12:09;;;;;;;9.02;4.43;;;14.40;86.00;;;;;;5013233;28;20135;-68
2021/10/20 07:14:35;;;;;;;8.20;4.93;;;14.40;86.00;;;;;;5019341;28;20033;-68
2021/10/20 07:17:03;;;;;;;8.32;5.15;;;14.50;85.30;;;;;;5023645;27;20391;-65
2021/10/20 07:19:29;;;;;;;9.50;4.50;;;14.60;85.00;;;;;;5011581;28;20070;-64
2021/10/20 07:21:54;;;;;;;8.80;5.00;;;14.60;84.90;;;;;;5009409;28;20047;-65
2021/10/20 07:24:20;;;;;;;8.98;5.13;;;14.60;84.90;;;;;;5008004;28;20037;-65
2021/10/20 07:26:45;;;;;;;8.70;5.57;;;14.60;85.00;;;;;;5015207;28;20072;-65
2021/10/20 07:29:11;;;;;;;10.93;5.18;;;14.60;84.90;;;;;;5015214;28;20041;-65
2021/10/20 07:31:37;;;;;;;8.80;5.60;;;14.60;85.00;;;;;;5015241;28;20116;-65
2021/10/20 07:34:02;;;;;;;9.30;5.43;;;14.70;84.50;;;;;;5022297;27;20026;-65
2021/10/20 07:36:28;;;;;;;9.57;5.80;;;14.60;85.00;;;;;;5011349;28;20719;-65
2021/10/20 07:38:55;;;;;;;9.82;5.50;;;14.70;84.40;;;;;;5004863;28;20509;-65
2021/10/20 07:41:20;;;;;;;9.60;5.60;;;14.70;84.40;;;;;;5007222;28;20029;-65
2021/10/20 07:43:47;;;;;;;8.93;6.30;;;14.70;84.90;;;;;;5005119;28;20089;-65
2021/10/20 07:46:12;;;;;;;8.95;6.07;;;14.80;84.30;;;;;;5000350;28;20093;-65
2021/10/20 07:48:38;;;;;;;10.13;6.50;;;14.80;83.80;;;;;;5011867;28;20037;-65
2021/10/20 07:51:04;;;;;;;9.13;5.95;;;14.80;84.20;;;;;;5028528;28;20048;-65
2021/10/20 07:53:29;;;;;;;12.63;6.85;;;14.90;83.60;;;;;;5004309;28;20045;-65
2021/10/20 07:55:55;;;;;;;10.88;6.43;;;14.90;83.70;;;;;;5019528;28;20029;-65
2021/10/20 07:58:20;;;;;;;14.63;6.95;;;15.00;83.30;;;;;;5012337;28;20030;-65
2021/10/20 08:00:46;;;;;;;10.55;6.47;;;15.10;83.20;;;;;;5011813;28;20025;-65
2021/10/20 08:03:12;;;;;;;10.13;6.43;;;15.10;83.10;;;;;;5024625;28;20047;-65
2021/10/20 08:05:37;;;;;;;10.40;6.45;;;15.10;82.90;;;;;;5013892;28;20110;-65
2021/10/20 08:08:03;;;;;;;10.18;6.35;;;15.20;83.10;;;;;;5015873;28;20029;-65
2021/10/20 08:10:29;;;;;;;11.45;7.00;;;15.30;83.10;;;;;;5010492;28;20048;-65
2021/10/20 08:12:57;;;;;;;9.60;6.88;;;15.40;81.80;;;;;;5011043;28;20105;-64
2021/10/20 08:15:24;;;;;;;11.15;6.95;;;15.40;82.70;;;;;;5007381;28;20034;-64
2021/10/20 08:17:50;;;;;;;10.43;6.80;;;15.40;82.70;;;;;;5008190;28;20022;-64
2021/10/20 08:20:20;;;;;;;10.88;6.90;;;15.40;82.70;;;;;;5015119;28;20440;-66
2021/10/20 08:22:46;;;;;;;13.25;6.75;;;15.50;82.20;;;;;;5008988;28;20118;-65
2021/10/20 08:25:13;;;;;;;9.73;6.10;;;15.40;83.00;;;;;;5004819;28;20044;-64
2021/10/20 08:27:39;;;;;;;10.75;6.47;;;15.50;82.40;;;;;;5005442;28;20021;-66
2021/10/20 08:30:07;;;;;;;11.85;6.45;;;15.50;82.70;;;;;;5009730;28;20523;-63
2021/10/20 08:32:33;;;;;;;10.65;5.97;;;15.50;82.40;;;;;;5018218;28;20502;-64
2021/10/20 08:34:59;;;;;;;12.00;6.32;;;15.60;82.90;;;;;;5007131;28;20041;-65
2021/10/20 08:37:25;;;;;;;9.77;5.53;;;15.50;83.00;;;;;;5023758;28;20037;-63
2021/10/20 08:39:50;;;;;;;9.70;5.60;;;15.50;82.80;;;;;;5019361;28;20033;-64
2021/10/20 08:42:16;;;;;;;9.23;5.78;;;15.60;82.30;;;;;;5006970;28;20029;-65
2021/10/20 08:44:42;;;;;;;11.50;6.70;;;15.60;82.50;;;;;;5011754;28;20076;-65
2021/10/20 08:47:08;;;;;;;11.48;6.40;;;15.60;82.90;;;;;;5015673;28;20033;-65
2021/10/20 08:49:36;;;;;;;12.20;5.95;;;15.70;82.80;;;;;;5011340;28;20170;-65
2021/10/20 08:52:03;;;;;;;8.45;5.93;;;15.80;82.60;;;;;;5011546;28;20026;-64
2021/10/20 08:54:29;;;;;;;11.55;5.72;;;15.90;82.70;;;;;;5018097;28;20040;-65
2021/10/20 08:56:55;;;;;;;9.00;5.93;;;15.80;82.30;;;;;;5009251;28;20034;-64
2021/10/20 08:59:22;;;;;;;10.30;5.65;;;15.90;82.60;;;;;;5014038;28;20109;-64
2021/10/20 09:01:48;;;;;;;9.23;6.25;;;15.90;82.40;;;;;;5008999;28;20022;-64
2021/10/20 09:04:19;;;;;;;9.77;6.03;;;16.00;82.10;;;;;;5012925;28;20537;-64
2021/10/20 09:06:45;;;;;;;13.10;6.72;;;15.90;82.50;;;;;;5019555;28;20038;-64
2021/10/20 09:09:13;;;;;;;11.48;6.60;;;16.00;82.50;;;;;;5005869;28;20048;-64
2021/10/20 09:11:40;;;;;;;9.43;6.35;;;16.00;82.40;;;;;;5010838;28;20479;-64
2021/10/20 09:14:12;;;;;;;9.32;5.55;;;16.00;82.50;;;;;;5015729;28;20105;-64
2021/10/20 09:16:43;;;;;;;14.35;6.00;;;16.10;82.20;;;;;;5006228;28;20090;-64
2021/10/20 09:19:16;;;;;;;10.15;5.53;;;16.20;81.60;;;;;;5006160;28;20022;-64
2021/10/20 09:22:05;;;;;;;7.80;5.60;;;16.20;81.90;;;;;;5007993;28;20052;-64
2021/10/20 09:24:40;;;;;;;8.95;5.35;;;16.30;81.10;;;;;;5025161;27;20163;-64
2021/10/20 09:27:18;;;;;;;10.95;6.13;;;16.30;81.40;;;;;;5018763;27;20487;-64
2021/10/20 09:29:44;;;;;;;8.40;5.28;;;16.40;81.70;;;;;;5011792;27;20025;-64
2021/10/20 09:32:09;;;;;;;9.13;5.68;;;16.50;82.10;;;;;;5008412;27;20097;-64
2021/10/20 09:34:36;;;;;;;11.05;5.68;;;16.50;81.50;;;;;;5019970;27;20025;-64
2021/10/20 09:37:09;;;;;;;9.18;5.32;;;16.50;80.60;;;;;;5001256;28;20037;-64
2021/10/20 09:39:37;;;;;;;11.63;5.97;;;16.50;80.90;;;;;;5004979;28;20099;-64
2021/10/20 09:42:12;;;;;;;9.88;5.88;;;16.60;80.10;;;;;;5013059;28;20505;-65
2021/10/20 09:44:51;;;;;;;8.50;5.22;;;16.80;79.70;;;;;;5011469;28;20124;-64
2021/10/20 09:47:18;;;;;;;9.63;5.30;;;16.90;79.00;;;;;;5010071;28;20030;-64
2021/10/20 09:49:48;;;;;;;10.00;4.90;;;17.10;78.80;;;;;;5028089;27;20025;-64
2021/10/20 09:52:15;;;;;;;11.55;5.30;;;17.30;78.50;;;;;;5027548;27;20439;-64
2021/10/20 09:54:41;;;;;;;9.88;5.55;;;17.20;79.20;;;;;;5091410;27;20110;-67
2021/10/20 09:57:07;;;;;;;8.98;4.95;;;17.20;78.70;;;;;;5011280;27;20034;-67
2021/10/20 09:59:33;;;;;;;9.45;5.18;;;17.50;78.10;;;;;;5011060;28;20144;-67
2021/10/20 10:01:59;;;;;;;9.60;5.45;;;17.60;78.50;;;;;;5011166;28;20424;-66
2021/10/20 10:04:25;;;;;;;8.68;5.07;;;17.60;77.60;;;;;;5005025;28;20094;-64
2021/10/20 10:06:51;;;;;;;8.05;4.68;;;17.50;78.10;;;;;;5008378;28;20532;-64
2021/10/20 10:09:18;;;;;;;10.45;5.03;;;17.40;78.60;;;;;;5010239;28;20464;-64
2021/10/20 10:11:58;;;;;;;7.07;4.78;;;17.30;79.10;;;;;;5011413;28;20380;-64
2021/10/20 10:14:37;;;;;;;8.73;4.75;;;17.20;79.30;;;;;;5006834;28;20025;-63
2021/10/20 10:17:04;;;;;;;9.27;4.47;;;17.20;78.80;;;;;;5008030;28;20822;-63
2021/10/20 10:19:32;;;;;;;7.30;4.47;;;17.20;79.30;;;;;;5011890;28;20045;-63
2021/10/20 10:21:58;;;;;;;7.63;4.50;;;17.20;79.30;;;;;;5013809;27;20033;-63
2021/10/20 10:24:33;;;;;;;8.38;4.80;;;17.10;79.40;;;;;;5012898;28;20056;-63
2021/10/20 10:27:10;;;;;;;8.00;4.80;;;17.10;78.60;;;;;;5014448;28;20022;-64
2021/10/20 10:29:53;;;;;;;9.27;5.32;;;17.20;79.90;;;;;;5012469;28;20147;-64
2021/10/20 10:32:21;;;;;;;10.18;4.68;;;17.20;79.30;;;;;;5015005;28;20026;-64
2021/10/20 10:34:48;;;;;;;7.43;4.82;;;17.20;79.90;;;;;;5014546;28;20017;-64
2021/10/20 10:37:25;;;;;;;8.93;4.90;;;17.10;79.70;;;;;;5006138;28;20628;-64
2021/10/20 10:39:50;;;;;;;8.65;4.57;;;17.00;80.30;;;;;;5008808;27;20028;-65
2021/10/20 10:42:16;;;;;;;7.78;4.40;;;17.00;80.30;;;;;;5013395;28;20570;-64
2021/10/20 10:44:50;;;;;;;6.97;4.40;;;16.90;80.40;;;;;;5014025;28;20670;-65
2021/10/20 10:47:21;;;;;;;7.10;4.80;;;16.80;81.00;;;;;;5004664;28;20081;-64
2021/10/20 10:49:54;;;;;;;;;;;16.80;81.70;;;;;;5008517;28;20116;-65
2021/10/20 10:52:34;;;;;;;7.55;4.35;;;16.80;81.40;;;;;;5011761;28;19920;-65
2021/10/20 10:55:20;;;;;;;10.93;5.32;;;16.80;81.40;;;;;;5017495;27;20068;-65
2021/10/20 10:57:59;;;;;;;8.45;5.28;;;16.70;81.50;;;;;;5018963;27;20121;-64
2021/10/20 11:00:31;;;;;;;9.00;4.70;;;16.70;82.00;;;;;;5007139;28;20084;-65
2021/10/20 11:02:57;;;;;;;;;;;16.80;81.80;;;;;;5012288;28;20033;-64
2021/10/20 11:05:30;;;;;;;8.90;4.68;;;16.80;82.30;;;;;;5005321;28;19966;-65
2021/10/20 11:08:10;;;;;;;6.65;4.82;;;16.90;81.50;;;;;;5014917;28;20392;-64
2021/10/20 11:10:38;;;;;;;8.18;4.53;;;17.10;80.80;;;;;;5011933;28;20113;-65
2021/10/20 11:13:04;;;;;;;10.18;4.38;;;17.30;79.80;;;;;;5011869;28;20059;-65
2021/10/20 11:15:31;;;;;;;8.80;4.65;;;17.20;80.00;;;;;;5015530;28;20028;-65
2021/10/20 11:17:57;;;;;;;17.35;5.55;;;17.20;80.40;;;;;;5014726;28;20036;-65
2021/10/20 11:20:24;;;;;;;8.20;4.55;;;17.10;80.80;;;;;;5015922;28;20510;-65
2021/10/20 11:22:53;;;;;;;8.65;4.47;;;17.10;80.80;;;;;;5010770;28;20480;-65
2021/10/20 11:25:20;;;;;;;10.25;4.55;;;17.20;80.70;;;;;;5019122;28;20435;-65
2021/10/20 11:27:55;;;;;;;9.18;4.75;;;17.30;80.10;;;;;;5017559;28;20025;-64
2021/10/20 11:30:24;;;;;;;6.68;4.50;;;17.30;80.90;;;;;;5014696;27;20086;-65
2021/10/20 11:32:50;;;;;;;8.10;4.68;;;17.40;80.10;;;;;;5002629;28;20844;-65
2021/10/20 11:35:21;;;;;;;9.45;4.80;;;17.50;79.80;;;;;;5018363;28;20029;-65
2021/10/20 11:37:57;;;;;;;7.15;4.22;;;17.40;80.20;;;;;;5018812;28;20144;-63
2021/10/20 11:40:25;;;;;;;8.15;4.28;;;17.30;80.60;;;;;;5015901;28;20411;-63
2021/10/20 11:42:51;;;;;;;6.78;4.35;;;17.20;80.90;;;;;;5007601;28;20096;-64
2021/10/20 11:45:18;;;;;;;8.15;4.70;;;17.10;81.10;;;;;;5016955;28;20089;-64
2021/10/20 11:47:44;;;;;;;7.20;4.47;;;17.00;81.40;;;;;;5011182;28;20553;-65
2021/10/20 11:50:18;;;;;;;8.05;4.30;;;17.00;81.50;;;;;;5012494;28;20033;-64
2021/10/20 11:52:55;;;;;;;12.32;4.47;;;17.00;81.80;;;;;;5021251;28;20026;-63
2021/10/20 11:55:21;;;;;;;8.88;4.20;;;17.00;82.80;;;;;;5016536;28;20077;-64
2021/10/20 11:57:47;;;;;;;8.10;4.18;;;16.90;82.30;;;;;;5021314;28;20033;-65
2021/10/20 12:00:13;;;;;;;8.85;4.40;;;17.00;82.20;;;;;;5027578;28;20125;-64
2021/10/20 12:02:39;;;;;;;5.88;4.18;;;16.90;82.70;;;;;;5014195;28;20085;-64
2021/10/20 12:05:05;;;;;;;7.63;4.05;;;17.00;82.00;;;;;;5029350;28;20041;-64
2021/10/20 12:07:30;;;;;;;8.52;4.55;;;16.90;82.60;;;;;;5014472;28;20112;-65
2021/10/20 12:10:02;;;;;;;8.55;4.15;;;16.90;82.80;;;;;;5027002;28;20239;-65
2021/10/20 12:12:29;;;;;;;7.85;5.47;;;16.90;82.90;;;;;;5024013;28;20116;-65
2021/10/20 12:14:59;;;;;;;10.27;4.60;;;17.00;82.80;;;;;;5023221;28;20515;-66
2021/10/20 12:17:28;;;;;;;9.65;4.57;;;16.90;83.40;;;;;;5013591;28;20046;-65
2021/10/20 12:19:56;;;;;;;7.30;4.65;;;16.80;83.70;;;;;;5013404;28;21086;-64
2021/10/20 12:22:22;;;;;;;9.00;4.43;;;16.80;84.30;;;;;;5012382;28;20121;-65
2021/10/20 12:24:49;;;;;;;8.65;5.10;;;16.80;84.10;;;;;;5020503;28;20109;-65
2021/10/20 12:27:16;;;;;;;7.65;5.18;;;16.80;83.90;;;;;;5017223;28;20158;-65
2021/10/20 12:29:45;;;;;;;7.75;4.90;;;16.70;84.80;;;;;;5020340;28;20081;-65
2021/10/20 12:32:21;;;;;;;7.20;4.80;;;16.70;84.40;;;;;;5028043;28;20025;-65
2021/10/20 12:35:10;;;;;;;9.15;5.28;;;16.70;84.60;;;;;;5023226;27;20025;-66
2021/10/20 12:37:42;;;;;;;10.27;5.00;;;16.70;84.60;;;;;;5041899;27;20025;-65
2021/10/20 12:40:27;;;;;;;8.68;5.35;;;16.80;84.40;;;;;;5015238;28;20026;-65